sensor_id;sensor_type;location;lat;lon;timestamp;P1;durP1;ratioP1;P2;durP2;ratioP2
6135;SDS011;24008;42.664;23.372;2023-02-27T00:00:49;32.47;;;12.67;;
6135;SDS011;24008;42.664;23.372;2023-02-27T00:03:16;34.53;;;12.37;;
6135;SDS011;24008;42.664;23.372;2023-02-27T00:05:43;32.20;;;12.77;;
6135;SDS011;24008;42.664;23.372;2023-02-27T00:08:10;37.27;;;15.23;;
6135;SDS011;24008;42.664;23.372;2023-02-27T00:10:37;38.00;;;13.20;;
6135;SDS011;24008;42.664;23.372;2023-02-27T00:13:04;32.33;;;13.60;;
6135;SDS011;24008;42.664;23.372;2023-02-27T00:15:33;29.63;;;12.07;;
6135;SDS011;24008;42.664;23.372;2023-02-27T00:18:01;34.00;;;13.23;;
6135;SDS011;24008;42.664;23.372;2023-02-27T00:20:28;36.30;;;13.30;;
6135;SDS011;24008;42.664;23.372;2023-02-27T00:22:56;32.63;;;12.13;;
6135;SDS011;24008;42.664;23.372;2023-02-27T00:25:23;31.57;;;14.07;;
6135;SDS011;24008;42.664;23.372;2023-02-27T00:27:50;35.03;;;12.53;;
6135;SDS011;24008;42.664;23.372;2023-02-27T00:30:18;31.53;;;13.00;;
6135;SDS011;24008;42.664;23.372;2023-02-27T00:32:46;32.40;;;13.00;;
6135;SDS011;24008;42.664;23.372;2023-02-27T00:35:13;31.90;;;13.27;;
6135;SDS011;24008;42.664;23.372;2023-02-27T00:37:39;39.43;;;13.57;;
6135;SDS011;24008;42.664;23.372;2023-02-27T00:40:07;25.60;;;12.43;;
6135;SDS011;24008;42.664;23.372;2023-02-27T00:42:35;38.10;;;13.77;;
6135;SDS011;24008;42.664;23.372;2023-02-27T00:45:03;33.70;;;12.90;;
6135;SDS011;24008;42.664;23.372;2023-02-27T00:47:31;34.23;;;12.67;;
6135;SDS011;24008;42.664;23.372;2023-02-27T00:49:59;37.87;;;13.60;;
6135;SDS011;24008;42.664;23.372;2023-02-27T00:52:26;30.97;;;12.50;;
6135;SDS011;24008;42.664;23.372;2023-02-27T00:54:53;33.77;;;14.53;;
6135;SDS011;24008;42.664;23.372;2023-02-27T00:57:20;37.43;;;13.70;;
6135;SDS011;24008;42.664;23.372;2023-02-27T00:59:47;27.67;;;12.70;;
6135;SDS011;24008;42.664;23.372;2023-02-27T01:02:13;32.13;;;13.40;;
6135;SDS011;24008;42.664;23.372;2023-02-27T01:04:40;33.37;;;14.20;;
6135;SDS011;24008;42.664;23.372;2023-02-27T01:07:08;33.90;;;13.37;;
6135;SDS011;24008;42.664;23.372;2023-02-27T01:09:36;41.00;;;14.37;;
6135;SDS011;24008;42.664;23.372;2023-02-27T01:12:03;29.70;;;13.53;;
6135;SDS011;24008;42.664;23.372;2023-02-27T01:14:29;31.03;;;13.30;;
6135;SDS011;24008;42.664;23.372;2023-02-27T01:16:56;28.93;;;12.87;;
6135;SDS011;24008;42.664;23.372;2023-02-27T01:19:23;38.93;;;13.97;;
6135;SDS011;24008;42.664;23.372;2023-02-27T01:21:50;29.03;;;13.03;;
6135;SDS011;24008;42.664;23.372;2023-02-27T01:24:18;37.03;;;14.20;;
6135;SDS011;24008;42.664;23.372;2023-02-27T01:26:46;35.37;;;13.20;;
6135;SDS011;24008;42.664;23.372;2023-02-27T01:29:12;34.53;;;13.03;;
6135;SDS011;24008;42.664;23.372;2023-02-27T01:31:40;31.73;;;12.97;;
6135;SDS011;24008;42.664;23.372;2023-02-27T01:34:07;42.10;;;13.33;;
6135;SDS011;24008;42.664;23.372;2023-02-27T01:36:33;37.03;;;14.30;;
6135;SDS011;24008;42.664;23.372;2023-02-27T01:39:00;23.30;;;13.43;;
6135;SDS011;24008;42.664;23.372;2023-02-27T01:41:28;38.87;;;14.93;;
6135;SDS011;24008;42.664;23.372;2023-02-27T01:43:56;38.07;;;14.33;;
6135;SDS011;24008;42.664;23.372;2023-02-27T01:46:24;35.07;;;13.50;;
6135;SDS011;24008;42.664;23.372;2023-02-27T01:48:52;42.90;;;14.20;;
6135;SDS011;24008;42.664;23.372;2023-02-27T01:51:23;34.63;;;14.50;;
6135;SDS011;24008;42.664;23.372;2023-02-27T01:53:52;36.27;;;14.47;;
6135;SDS011;24008;42.664;23.372;2023-02-27T01:56:21;31.97;;;14.20;;
6135;SDS011;24008;42.664;23.372;2023-02-27T01:58:51;41.13;;;14.13;;
6135;SDS011;24008;42.664;23.372;2023-02-27T02:01:26;36.43;;;13.03;;
6135;SDS011;24008;42.664;23.372;2023-02-27T02:03:56;32.33;;;12.70;;
6135;SDS011;24008;42.664;23.372;2023-02-27T02:06:26;34.90;;;13.70;;
6135;SDS011;24008;42.664;23.372;2023-02-27T02:08:55;35.50;;;14.13;;
6135;SDS011;24008;42.664;23.372;2023-02-27T02:11:25;30.10;;;13.50;;
6135;SDS011;24008;42.664;23.372;2023-02-27T02:13:56;34.87;;;14.07;;
6135;SDS011;24008;42.664;23.372;2023-02-27T02:16:42;33.80;;;13.47;;
6135;SDS011;24008;42.664;23.372;2023-02-27T02:19:38;31.83;;;14.13;;
6135;SDS011;24008;42.664;23.372;2023-02-27T02:25:52;33.27;;;13.87;;
6135;SDS011;24008;42.664;23.372;2023-02-27T02:28:50;41.27;;;14.87;;
6135;SDS011;24008;42.664;23.372;2023-02-27T02:31:47;27.70;;;11.43;;
6135;SDS011;24008;42.664;23.372;2023-02-27T02:34:42;29.63;;;9.20;;
6135;SDS011;24008;42.664;23.372;2023-02-27T02:37:42;27.57;;;8.80;;
6135;SDS011;24008;42.664;23.372;2023-02-27T02:40:38;16.57;;;6.60;;
6135;SDS011;24008;42.664;23.372;2023-02-27T02:43:11;17.00;;;6.33;;
6135;SDS011;24008;42.664;23.372;2023-02-27T02:45:44;14.20;;;4.87;;
6135;SDS011;24008;42.664;23.372;2023-02-27T02:48:18;10.33;;;4.20;;
6135;SDS011;24008;42.664;23.372;2023-02-27T02:50:53;12.00;;;3.67;;
6135;SDS011;24008;42.664;23.372;2023-02-27T02:53:26;7.43;;;3.03;;
6135;SDS011;24008;42.664;23.372;2023-02-27T02:56:01;9.30;;;2.87;;
6135;SDS011;24008;42.664;23.372;2023-02-27T02:58:32;10.47;;;2.53;;
6135;SDS011;24008;42.664;23.372;2023-02-27T03:01:04;8.07;;;2.50;;
6135;SDS011;24008;42.664;23.372;2023-02-27T03:03:39;8.10;;;3.57;;
6135;SDS011;24008;42.664;23.372;2023-02-27T03:06:10;8.87;;;1.90;;
6135;SDS011;24008;42.664;23.372;2023-02-27T03:08:42;7.73;;;2.17;;
6135;SDS011;24008;42.664;23.372;2023-02-27T03:11:15;6.67;;;1.83;;
6135;SDS011;24008;42.664;23.372;2023-02-27T03:13:43;6.10;;;2.80;;
6135;SDS011;24008;42.664;23.372;2023-02-27T03:16:16;5.27;;;2.20;;
6135;SDS011;24008;42.664;23.372;2023-02-27T03:18:49;6.50;;;2.80;;
6135;SDS011;24008;42.664;23.372;2023-02-27T03:21:21;9.67;;;3.37;;
6135;SDS011;24008;42.664;23.372;2023-02-27T03:23:52;6.13;;;3.40;;
6135;SDS011;24008;42.664;23.372;2023-02-27T03:26:23;9.90;;;5.20;;
6135;SDS011;24008;42.664;23.372;2023-02-27T03:28:58;8.53;;;4.57;;
6135;SDS011;24008;42.664;23.372;2023-02-27T03:31:30;7.43;;;4.43;;
6135;SDS011;24008;42.664;23.372;2023-02-27T03:34:20;9.23;;;4.60;;
6135;SDS011;24008;42.664;23.372;2023-02-27T03:36:51;9.13;;;4.70;;
6135;SDS011;24008;42.664;23.372;2023-02-27T03:39:26;9.07;;;5.77;;
6135;SDS011;24008;42.664;23.372;2023-02-27T03:42:21;8.53;;;5.00;;
6135;SDS011;24008;42.664;23.372;2023-02-27T03:44:55;8.60;;;5.60;;
6135;SDS011;24008;42.664;23.372;2023-02-27T03:47:28;11.20;;;5.20;;
6135;SDS011;24008;42.664;23.372;2023-02-27T03:49:55;9.07;;;5.40;;
6135;SDS011;24008;42.664;23.372;2023-02-27T03:52:22;9.90;;;5.63;;
6135;SDS011;24008;42.664;23.372;2023-02-27T03:54:52;7.90;;;5.60;;
6135;SDS011;24008;42.664;23.372;2023-02-27T03:57:26;9.77;;;5.93;;
6135;SDS011;24008;42.664;23.372;2023-02-27T03:59:54;9.77;;;5.30;;
6135;SDS011;24008;42.664;23.372;2023-02-27T04:02:21;9.47;;;5.70;;
6135;SDS011;24008;42.664;23.372;2023-02-27T04:04:48;9.30;;;5.60;;
6135;SDS011;24008;42.664;23.372;2023-02-27T04:07:17;9.43;;;5.60;;
6135;SDS011;24008;42.664;23.372;2023-02-27T04:10:08;8.93;;;5.00;;
6135;SDS011;24008;42.664;23.372;2023-02-27T04:13:02;9.10;;;5.47;;
6135;SDS011;24008;42.664;23.372;2023-02-27T04:15:56;10.23;;;5.17;;
6135;SDS011;24008;42.664;23.372;2023-02-27T04:18:43;9.93;;;5.40;;
6135;SDS011;24008;42.664;23.372;2023-02-27T04:21:20;10.10;;;5.53;;
6135;SDS011;24008;42.664;23.372;2023-02-27T04:23:54;9.20;;;5.60;;
6135;SDS011;24008;42.664;23.372;2023-02-27T04:26:27;7.93;;;5.17;;
6135;SDS011;24008;42.664;23.372;2023-02-27T04:29:01;7.20;;;4.70;;
6135;SDS011;24008;42.664;23.372;2023-02-27T04:31:31;8.00;;;5.37;;
6135;SDS011;24008;42.664;23.372;2023-02-27T04:34:07;9.50;;;5.57;;
6135;SDS011;24008;42.664;23.372;2023-02-27T04:36:40;11.03;;;5.93;;
6135;SDS011;24008;42.664;23.372;2023-02-27T04:39:13;9.20;;;5.50;;
6135;SDS011;24008;42.664;23.372;2023-02-27T04:41:45;10.33;;;5.80;;
6135;SDS011;24008;42.664;23.372;2023-02-27T04:44:19;8.93;;;5.50;;
6135;SDS011;24008;42.664;23.372;2023-02-27T04:46:47;9.70;;;5.97;;
6135;SDS011;24008;42.664;23.372;2023-02-27T04:49:17;8.70;;;5.23;;
6135;SDS011;24008;42.664;23.372;2023-02-27T04:51:49;8.30;;;4.60;;
6135;SDS011;24008;42.664;23.372;2023-02-27T04:54:23;9.57;;;6.10;;
6135;SDS011;24008;42.664;23.372;2023-02-27T04:56:56;14.70;;;7.93;;
6135;SDS011;24008;42.664;23.372;2023-02-27T04:59:29;7.63;;;4.70;;
6135;SDS011;24008;42.664;23.372;2023-02-27T05:02:00;11.07;;;5.27;;
6135;SDS011;24008;42.664;23.372;2023-02-27T05:04:31;10.33;;;5.27;;
6135;SDS011;24008;42.664;23.372;2023-02-27T05:07:01;9.20;;;5.40;;
6135;SDS011;24008;42.664;23.372;2023-02-27T05:09:31;8.30;;;4.90;;
6135;SDS011;24008;42.664;23.372;2023-02-27T05:12:04;9.03;;;5.20;;
6135;SDS011;24008;42.664;23.372;2023-02-27T05:14:38;8.07;;;5.20;;
6135;SDS011;24008;42.664;23.372;2023-02-27T05:17:10;73.40;;;34.77;;
6135;SDS011;24008;42.664;23.372;2023-02-27T05:19:43;9.37;;;5.90;;
6135;SDS011;24008;42.664;23.372;2023-02-27T05:22:14;8.47;;;5.30;;
6135;SDS011;24008;42.664;23.372;2023-02-27T05:24:48;10.07;;;5.37;;
6135;SDS011;24008;42.664;23.372;2023-02-27T05:27:22;7.60;;;4.77;;
6135;SDS011;24008;42.664;23.372;2023-02-27T05:29:58;7.83;;;4.80;;
6135;SDS011;24008;42.664;23.372;2023-02-27T05:32:34;5.73;;;4.03;;
6135;SDS011;24008;42.664;23.372;2023-02-27T05:35:08;6.27;;;4.10;;
6135;SDS011;24008;42.664;23.372;2023-02-27T05:37:41;6.17;;;4.03;;
6135;SDS011;24008;42.664;23.372;2023-02-27T05:40:14;5.47;;;3.67;;
6135;SDS011;24008;42.664;23.372;2023-02-27T05:42:46;7.00;;;3.77;;
6135;SDS011;24008;42.664;23.372;2023-02-27T05:45:21;6.20;;;4.07;;
6135;SDS011;24008;42.664;23.372;2023-02-27T05:47:51;8.30;;;4.77;;
6135;SDS011;24008;42.664;23.372;2023-02-27T05:50:24;6.73;;;4.47;;
6135;SDS011;24008;42.664;23.372;2023-02-27T05:52:53;7.00;;;3.90;;
6135;SDS011;24008;42.664;23.372;2023-02-27T05:55:26;6.10;;;4.23;;
6135;SDS011;24008;42.664;23.372;2023-02-27T05:57:58;6.07;;;4.30;;
6135;SDS011;24008;42.664;23.372;2023-02-27T06:00:32;6.33;;;4.50;;
6135;SDS011;24008;42.664;23.372;2023-02-27T06:03:03;6.73;;;3.90;;
6135;SDS011;24008;42.664;23.372;2023-02-27T06:05:30;6.43;;;4.10;;
6135;SDS011;24008;42.664;23.372;2023-02-27T06:07:58;7.37;;;4.27;;
6135;SDS011;24008;42.664;23.372;2023-02-27T06:10:24;7.27;;;4.47;;
6135;SDS011;24008;42.664;23.372;2023-02-27T06:12:51;6.00;;;3.93;;
6135;SDS011;24008;42.664;23.372;2023-02-27T06:15:18;10.87;;;7.13;;
6135;SDS011;24008;42.664;23.372;2023-02-27T06:17:46;8.37;;;6.03;;
6135;SDS011;24008;42.664;23.372;2023-02-27T06:20:13;7.57;;;4.83;;
6135;SDS011;24008;42.664;23.372;2023-02-27T06:22:40;8.20;;;5.07;;
6135;SDS011;24008;42.664;23.372;2023-02-27T06:25:07;7.27;;;4.93;;
6135;SDS011;24008;42.664;23.372;2023-02-27T06:27:35;6.10;;;4.50;;
6135;SDS011;24008;42.664;23.372;2023-02-27T06:30:02;6.47;;;4.07;;
6135;SDS011;24008;42.664;23.372;2023-02-27T06:32:31;6.70;;;4.07;;
6135;SDS011;24008;42.664;23.372;2023-02-27T06:34:59;6.57;;;4.90;;
6135;SDS011;24008;42.664;23.372;2023-02-27T06:37:26;5.77;;;4.27;;
6135;SDS011;24008;42.664;23.372;2023-02-27T06:39:53;7.53;;;4.10;;
6135;SDS011;24008;42.664;23.372;2023-02-27T06:42:20;5.80;;;3.87;;
6135;SDS011;24008;42.664;23.372;2023-02-27T06:44:46;4.50;;;3.30;;
6135;SDS011;24008;42.664;23.372;2023-02-27T06:47:13;5.00;;;3.60;;
6135;SDS011;24008;42.664;23.372;2023-02-27T06:49:40;5.37;;;3.10;;
6135;SDS011;24008;42.664;23.372;2023-02-27T06:52:08;7.43;;;4.50;;
6135;SDS011;24008;42.664;23.372;2023-02-27T06:54:35;6.67;;;4.90;;
6135;SDS011;24008;42.664;23.372;2023-02-27T06:57:02;7.30;;;5.40;;
6135;SDS011;24008;42.664;23.372;2023-02-27T06:59:29;6.90;;;5.37;;
6135;SDS011;24008;42.664;23.372;2023-02-27T07:01:57;7.40;;;5.70;;
6135;SDS011;24008;42.664;23.372;2023-02-27T07:04:24;9.53;;;5.83;;
6135;SDS011;24008;42.664;23.372;2023-02-27T07:06:51;9.73;;;5.77;;
6135;SDS011;24008;42.664;23.372;2023-02-27T07:09:20;9.10;;;5.93;;
6135;SDS011;24008;42.664;23.372;2023-02-27T07:11:47;7.47;;;5.53;;
6135;SDS011;24008;42.664;23.372;2023-02-27T07:14:14;7.30;;;4.60;;
6135;SDS011;24008;42.664;23.372;2023-02-27T07:16:41;6.63;;;4.20;;
6135;SDS011;24008;42.664;23.372;2023-02-27T07:19:09;5.23;;;3.93;;
6135;SDS011;24008;42.664;23.372;2023-02-27T07:21:35;5.63;;;4.10;;
6135;SDS011;24008;42.664;23.372;2023-02-27T07:24:02;4.87;;;3.90;;
6135;SDS011;24008;42.664;23.372;2023-02-27T07:26:31;5.60;;;4.00;;
6135;SDS011;24008;42.664;23.372;2023-02-27T07:28:57;8.10;;;4.50;;
6135;SDS011;24008;42.664;23.372;2023-02-27T07:31:27;6.60;;;4.47;;
6135;SDS011;24008;42.664;23.372;2023-02-27T07:33:54;5.30;;;4.53;;
6135;SDS011;24008;42.664;23.372;2023-02-27T07:36:21;5.43;;;4.40;;
6135;SDS011;24008;42.664;23.372;2023-02-27T07:38:47;7.47;;;4.70;;
6135;SDS011;24008;42.664;23.372;2023-02-27T07:41:14;8.37;;;4.90;;
6135;SDS011;24008;42.664;23.372;2023-02-27T07:43:43;7.20;;;5.30;;
6135;SDS011;24008;42.664;23.372;2023-02-27T07:46:10;8.03;;;4.97;;
6135;SDS011;24008;42.664;23.372;2023-02-27T07:48:37;10.67;;;5.10;;
6135;SDS011;24008;42.664;23.372;2023-02-27T07:51:04;8.77;;;4.77;;
6135;SDS011;24008;42.664;23.372;2023-02-27T07:53:31;10.57;;;5.47;;
6135;SDS011;24008;42.664;23.372;2023-02-27T07:55:58;10.47;;;5.53;;
6135;SDS011;24008;42.664;23.372;2023-02-27T07:58:25;10.33;;;5.73;;
6135;SDS011;24008;42.664;23.372;2023-02-27T08:00:53;9.47;;;5.40;;
6135;SDS011;24008;42.664;23.372;2023-02-27T08:03:20;6.93;;;4.50;;
6135;SDS011;24008;42.664;23.372;2023-02-27T08:05:47;11.33;;;5.10;;
6135;SDS011;24008;42.664;23.372;2023-02-27T08:08:14;7.50;;;5.30;;
6135;SDS011;24008;42.664;23.372;2023-02-27T08:10:41;7.30;;;5.47;;
6135;SDS011;24008;42.664;23.372;2023-02-27T08:13:07;9.53;;;4.83;;
6135;SDS011;24008;42.664;23.372;2023-02-27T08:15:34;9.17;;;4.80;;
6135;SDS011;24008;42.664;23.372;2023-02-27T08:18:02;6.00;;;4.53;;
6135;SDS011;24008;42.664;23.372;2023-02-27T08:20:29;9.87;;;5.10;;
6135;SDS011;24008;42.664;23.372;2023-02-27T08:22:56;11.77;;;5.47;;
6135;SDS011;24008;42.664;23.372;2023-02-27T08:25:23;9.90;;;5.93;;
6135;SDS011;24008;42.664;23.372;2023-02-27T08:27:50;10.50;;;5.60;;
6135;SDS011;24008;42.664;23.372;2023-02-27T08:30:17;11.17;;;5.77;;
6135;SDS011;24008;42.664;23.372;2023-02-27T08:32:44;9.73;;;5.90;;
6135;SDS011;24008;42.664;23.372;2023-02-27T08:35:12;8.97;;;6.53;;
6135;SDS011;24008;42.664;23.372;2023-02-27T08:37:39;11.70;;;6.33;;
6135;SDS011;24008;42.664;23.372;2023-02-27T08:40:07;10.23;;;5.80;;
6135;SDS011;24008;42.664;23.372;2023-02-27T08:42:35;8.03;;;5.40;;
6135;SDS011;24008;42.664;23.372;2023-02-27T08:45:02;6.83;;;5.63;;
6135;SDS011;24008;42.664;23.372;2023-02-27T08:47:31;9.70;;;6.33;;
6135;SDS011;24008;42.664;23.372;2023-02-27T08:50:02;10.90;;;6.23;;
6135;SDS011;24008;42.664;23.372;2023-02-27T08:52:31;11.73;;;6.33;;
6135;SDS011;24008;42.664;23.372;2023-02-27T08:54:58;7.40;;;6.20;;
6135;SDS011;24008;42.664;23.372;2023-02-27T08:57:25;8.87;;;5.70;;
6135;SDS011;24008;42.664;23.372;2023-02-27T08:59:52;8.53;;;5.90;;
6135;SDS011;24008;42.664;23.372;2023-02-27T09:02:19;13.70;;;6.60;;
6135;SDS011;24008;42.664;23.372;2023-02-27T09:04:47;9.57;;;6.47;;
6135;SDS011;24008;42.664;23.372;2023-02-27T09:07:14;8.07;;;5.73;;
6135;SDS011;24008;42.664;23.372;2023-02-27T09:09:42;10.20;;;5.67;;
6135;SDS011;24008;42.664;23.372;2023-02-27T09:12:11;11.40;;;6.20;;
6135;SDS011;24008;42.664;23.372;2023-02-27T09:14:38;9.03;;;5.73;;
6135;SDS011;24008;42.664;23.372;2023-02-27T09:17:05;9.20;;;5.50;;
6135;SDS011;24008;42.664;23.372;2023-02-27T09:19:32;23.80;;;6.10;;
6135;SDS011;24008;42.664;23.372;2023-02-27T09:22:00;10.90;;;5.10;;
6135;SDS011;24008;42.664;23.372;2023-02-27T09:24:27;9.10;;;5.43;;
6135;SDS011;24008;42.664;23.372;2023-02-27T09:26:56;14.73;;;5.70;;
6135;SDS011;24008;42.664;23.372;2023-02-27T09:29:22;9.83;;;5.20;;
6135;SDS011;24008;42.664;23.372;2023-02-27T09:31:51;10.13;;;5.30;;
6135;SDS011;24008;42.664;23.372;2023-02-27T09:34:18;8.13;;;4.67;;
6135;SDS011;24008;42.664;23.372;2023-02-27T09:36:45;7.93;;;4.90;;
6135;SDS011;24008;42.664;23.372;2023-02-27T09:39:11;8.20;;;5.33;;
6135;SDS011;24008;42.664;23.372;2023-02-27T09:41:41;10.00;;;5.47;;
6135;SDS011;24008;42.664;23.372;2023-02-27T09:44:20;9.97;;;5.87;;
6135;SDS011;24008;42.664;23.372;2023-02-27T09:46:51;11.00;;;6.10;;
6135;SDS011;24008;42.664;23.372;2023-02-27T09:49:19;8.30;;;5.47;;
6135;SDS011;24008;42.664;23.372;2023-02-27T09:51:50;9.57;;;5.87;;
6135;SDS011;24008;42.664;23.372;2023-02-27T09:54:17;11.33;;;6.00;;
6135;SDS011;24008;42.664;23.372;2023-02-27T09:56:46;11.73;;;7.47;;
6135;SDS011;24008;42.664;23.372;2023-02-27T09:59:26;13.53;;;7.90;;
6135;SDS011;24008;42.664;23.372;2023-02-27T10:02:01;10.30;;;7.33;;
6135;SDS011;24008;42.664;23.372;2023-02-27T10:04:39;11.37;;;7.50;;
6135;SDS011;24008;42.664;23.372;2023-02-27T10:07:14;13.07;;;8.10;;
6135;SDS011;24008;42.664;23.372;2023-02-27T10:09:51;10.03;;;7.93;;
6135;SDS011;24008;42.664;23.372;2023-02-27T10:12:33;14.33;;;9.20;;
6135;SDS011;24008;42.664;23.372;2023-02-27T10:15:19;14.63;;;8.43;;
6135;SDS011;24008;42.664;23.372;2023-02-27T10:17:51;15.30;;;8.13;;
6135;SDS011;24008;42.664;23.372;2023-02-27T10:20:23;14.77;;;8.70;;
6135;SDS011;24008;42.664;23.372;2023-02-27T10:22:52;18.73;;;8.00;;
6135;SDS011;24008;42.664;23.372;2023-02-27T10:25:23;12.97;;;8.50;;
6135;SDS011;24008;42.664;23.372;2023-02-27T10:27:52;12.63;;;8.30;;
6135;SDS011;24008;42.664;23.372;2023-02-27T10:30:24;15.47;;;8.47;;
6135;SDS011;24008;42.664;23.372;2023-02-27T10:32:55;12.67;;;8.37;;
6135;SDS011;24008;42.664;23.372;2023-02-27T10:35:33;14.23;;;9.23;;
6135;SDS011;24008;42.664;23.372;2023-02-27T10:38:02;16.03;;;9.60;;
6135;SDS011;24008;42.664;23.372;2023-02-27T10:40:31;15.03;;;9.50;;
6135;SDS011;24008;42.664;23.372;2023-02-27T10:43:01;15.33;;;9.20;;
6135;SDS011;24008;42.664;23.372;2023-02-27T10:45:31;19.40;;;10.40;;
6135;SDS011;24008;42.664;23.372;2023-02-27T10:47:59;15.87;;;10.37;;
6135;SDS011;24008;42.664;23.372;2023-02-27T10:50:27;14.37;;;9.57;;
6135;SDS011;24008;42.664;23.372;2023-02-27T10:52:57;16.17;;;10.10;;
6135;SDS011;24008;42.664;23.372;2023-02-27T10:55:26;18.97;;;10.67;;
6135;SDS011;24008;42.664;23.372;2023-02-27T10:57:55;15.53;;;10.57;;
6135;SDS011;24008;42.664;23.372;2023-02-27T11:00:25;15.73;;;10.57;;
6135;SDS011;24008;42.664;23.372;2023-02-27T11:02:56;20.57;;;11.73;;
6135;SDS011;24008;42.664;23.372;2023-02-27T11:05:24;20.60;;;10.80;;
6135;SDS011;24008;42.664;23.372;2023-02-27T11:07:53;16.87;;;10.97;;
6135;SDS011;24008;42.664;23.372;2023-02-27T11:10:25;20.83;;;11.13;;
6135;SDS011;24008;42.664;23.372;2023-02-27T11:12:58;18.47;;;10.90;;
6135;SDS011;24008;42.664;23.372;2023-02-27T11:15:27;14.33;;;10.70;;
6135;SDS011;24008;42.664;23.372;2023-02-27T11:18:08;15.40;;;10.20;;
6135;SDS011;24008;42.664;23.372;2023-02-27T11:20:45;15.27;;;9.83;;
6135;SDS011;24008;42.664;23.372;2023-02-27T11:23:16;18.27;;;10.03;;
6135;SDS011;24008;42.664;23.372;2023-02-27T11:25:45;12.77;;;10.00;;
6135;SDS011;24008;42.664;23.372;2023-02-27T11:28:17;12.80;;;9.83;;
6135;SDS011;24008;42.664;23.372;2023-02-27T11:30:54;15.13;;;10.43;;
6135;SDS011;24008;42.664;23.372;2023-02-27T11:33:24;14.87;;;9.70;;
6135;SDS011;24008;42.664;23.372;2023-02-27T11:35:53;20.03;;;9.97;;
6135;SDS011;24008;42.664;23.372;2023-02-27T11:38:22;13.27;;;9.30;;
6135;SDS011;24008;42.664;23.372;2023-02-27T11:40:51;16.37;;;9.60;;
6135;SDS011;24008;42.664;23.372;2023-02-27T11:43:21;14.23;;;9.43;;
6135;SDS011;24008;42.664;23.372;2023-02-27T11:45:51;17.20;;;9.70;;
6135;SDS011;24008;42.664;23.372;2023-02-27T11:48:22;15.87;;;9.50;;
6135;SDS011;24008;42.664;23.372;2023-02-27T11:51:03;14.47;;;10.17;;
6135;SDS011;24008;42.664;23.372;2023-02-27T11:56:40;18.30;;;10.10;;
6135;SDS011;24008;42.664;23.372;2023-02-27T11:59:22;15.10;;;9.23;;
6135;SDS011;24008;42.664;23.372;2023-02-27T12:01:58;17.80;;;9.73;;
6135;SDS011;24008;42.664;23.372;2023-02-27T12:04:32;18.60;;;9.50;;
6135;SDS011;24008;42.664;23.372;2023-02-27T12:07:09;21.73;;;9.30;;
6135;SDS011;24008;42.664;23.372;2023-02-27T12:09:43;21.37;;;10.63;;
6135;SDS011;24008;42.664;23.372;2023-02-27T12:12:17;16.17;;;9.73;;
6135;SDS011;24008;42.664;23.372;2023-02-27T12:14:49;16.63;;;9.37;;
6135;SDS011;24008;42.664;23.372;2023-02-27T12:17:24;18.33;;;10.17;;
6135;SDS011;24008;42.664;23.372;2023-02-27T12:19:59;15.27;;;9.47;;
6135;SDS011;24008;42.664;23.372;2023-02-27T12:22:43;21.77;;;9.80;;
6135;SDS011;24008;42.664;23.372;2023-02-27T12:25:14;16.07;;;9.60;;
6135;SDS011;24008;42.664;23.372;2023-02-27T12:27:50;18.97;;;10.03;;
6135;SDS011;24008;42.664;23.372;2023-02-27T12:30:20;16.93;;;9.47;;
6135;SDS011;24008;42.664;23.372;2023-02-27T12:32:53;16.13;;;10.80;;
6135;SDS011;24008;42.664;23.372;2023-02-27T12:35:28;20.70;;;10.13;;
6135;SDS011;24008;42.664;23.372;2023-02-27T12:37:57;20.03;;;10.27;;
6135;SDS011;24008;42.664;23.372;2023-02-27T12:40:26;21.63;;;11.30;;
6135;SDS011;24008;42.664;23.372;2023-02-27T12:43:10;17.93;;;10.50;;
6135;SDS011;24008;42.664;23.372;2023-02-27T12:46:12;15.80;;;9.67;;
6135;SDS011;24008;42.664;23.372;2023-02-27T12:49:07;15.33;;;10.03;;
6135;SDS011;24008;42.664;23.372;2023-02-27T12:51:51;20.57;;;10.40;;
6135;SDS011;24008;42.664;23.372;2023-02-27T12:54:29;27.80;;;16.33;;
6135;SDS011;24008;42.664;23.372;2023-02-27T12:57:08;19.00;;;10.63;;
6135;SDS011;24008;42.664;23.372;2023-02-27T12:59:51;15.93;;;9.43;;
6135;SDS011;24008;42.664;23.372;2023-02-27T13:02:33;15.50;;;9.30;;
6135;SDS011;24008;42.664;23.372;2023-02-27T13:05:25;22.73;;;11.07;;
6135;SDS011;24008;42.664;23.372;2023-02-27T13:08:00;20.80;;;10.03;;
6135;SDS011;24008;42.664;23.372;2023-02-27T13:10:35;17.67;;;8.80;;
6135;SDS011;24008;42.664;23.372;2023-02-27T13:13:10;16.73;;;8.53;;
6135;SDS011;24008;42.664;23.372;2023-02-27T13:15:44;16.90;;;9.50;;
6135;SDS011;24008;42.664;23.372;2023-02-27T13:18:21;19.30;;;9.57;;
6135;SDS011;24008;42.664;23.372;2023-02-27T13:21:07;23.67;;;9.07;;
6135;SDS011;24008;42.664;23.372;2023-02-27T13:23:41;15.90;;;9.10;;
6135;SDS011;24008;42.664;23.372;2023-02-27T13:26:23;20.70;;;9.97;;
6135;SDS011;24008;42.664;23.372;2023-02-27T13:28:54;19.37;;;9.83;;
6135;SDS011;24008;42.664;23.372;2023-02-27T13:31:25;19.13;;;9.10;;
6135;SDS011;24008;42.664;23.372;2023-02-27T13:34:02;20.40;;;10.33;;
6135;SDS011;24008;42.664;23.372;2023-02-27T13:36:36;16.57;;;9.70;;
6135;SDS011;24008;42.664;23.372;2023-02-27T13:51:08;13.23;;;8.33;;
6135;SDS011;24008;42.664;23.372;2023-02-27T13:54:11;14.27;;;8.70;;
6135;SDS011;24008;42.664;23.372;2023-02-27T13:56:44;18.07;;;8.90;;
6135;SDS011;24008;42.664;23.372;2023-02-27T13:59:17;13.10;;;8.47;;
6135;SDS011;24008;42.664;23.372;2023-02-27T14:01:47;15.00;;;9.70;;
6135;SDS011;24008;42.664;23.372;2023-02-27T14:04:17;13.33;;;8.37;;
6135;SDS011;24008;42.664;23.372;2023-02-27T14:06:45;12.00;;;8.23;;
6135;SDS011;24008;42.664;23.372;2023-02-27T14:09:16;13.70;;;9.43;;
6135;SDS011;24008;42.664;23.372;2023-02-27T14:11:50;17.33;;;9.03;;
6135;SDS011;24008;42.664;23.372;2023-02-27T14:14:37;13.57;;;8.90;;
6135;SDS011;24008;42.664;23.372;2023-02-27T14:23:16;15.03;;;9.13;;
6135;SDS011;24008;42.664;23.372;2023-02-27T14:25:51;17.93;;;9.20;;
6135;SDS011;24008;42.664;23.372;2023-02-27T14:28:21;16.30;;;9.13;;
6135;SDS011;24008;42.664;23.372;2023-02-27T14:30:53;13.43;;;8.83;;
6135;SDS011;24008;42.664;23.372;2023-02-27T14:33:25;13.90;;;8.80;;
6135;SDS011;24008;42.664;23.372;2023-02-27T14:35:59;13.40;;;9.20;;
6135;SDS011;24008;42.664;23.372;2023-02-27T14:38:29;13.43;;;8.60;;
6135;SDS011;24008;42.664;23.372;2023-02-27T14:41:03;15.97;;;9.20;;
6135;SDS011;24008;42.664;23.372;2023-02-27T14:43:37;16.53;;;9.07;;
6135;SDS011;24008;42.664;23.372;2023-02-27T14:46:18;16.30;;;9.07;;
6135;SDS011;24008;42.664;23.372;2023-02-27T14:48:51;11.70;;;8.53;;
6135;SDS011;24008;42.664;23.372;2023-02-27T14:51:19;14.53;;;7.90;;
6135;SDS011;24008;42.664;23.372;2023-02-27T14:53:57;18.90;;;9.10;;
6135;SDS011;24008;42.664;23.372;2023-02-27T14:56:27;14.83;;;9.13;;
6135;SDS011;24008;42.664;23.372;2023-02-27T14:58:55;13.20;;;9.52;;
6135;SDS011;24008;42.664;23.372;2023-02-27T15:01:23;15.93;;;9.03;;
6135;SDS011;24008;42.664;23.372;2023-02-27T15:03:52;14.47;;;8.67;;
6135;SDS011;24008;42.664;23.372;2023-02-27T15:06:23;15.80;;;9.10;;
6135;SDS011;24008;42.664;23.372;2023-02-27T15:08:58;13.00;;;8.80;;
6135;SDS011;24008;42.664;23.372;2023-02-27T15:11:25;15.47;;;8.43;;
6135;SDS011;24008;42.664;23.372;2023-02-27T15:13:55;13.40;;;9.63;;
6135;SDS011;24008;42.664;23.372;2023-02-27T15:16:28;17.50;;;9.03;;
6135;SDS011;24008;42.664;23.372;2023-02-27T15:19:00;17.67;;;9.70;;
6135;SDS011;24008;42.664;23.372;2023-02-27T15:21:31;17.00;;;9.77;;
6135;SDS011;24008;42.664;23.372;2023-02-27T15:23:59;19.23;;;10.73;;
6135;SDS011;24008;42.664;23.372;2023-02-27T15:26:28;15.67;;;9.73;;